Time;durP1;ratioP1;P1;durP2;ratioP2;P2;SDS_P1;SDS_P2;PMS_P1;PMS_P2;Temp;Humidity;BMP_temperature;BMP_pressure;BME280_temperature;BME280_humidity;BME280_pressure;Samples;Min_cycle;Max_cycle;Signal;HPM_P1;HPM_P2
2021/04/22 00:04:28;;;;;;;22.80;3.23;;;4.00;90.50;;;;;;10467577;28;20131;-67
2021/04/22 00:09:29;;;;;;;19.88;3.72;;;3.90;90.40;;;;;;10466481;28;20518;-68
2021/04/22 00:14:31;;;;;;;17.88;3.33;;;3.80;90.50;;;;;;10463712;28;20408;-67
2021/04/22 00:19:32;;;;;;;20.20;3.45;;;4.00;91.90;;;;;;10466057;28;20135;-67
2021/04/22 00:24:34;;;;;;;20.20;3.33;;;3.70;90.40;;;;;;10469468;28;20822;-67
2021/04/22 00:29:36;;;;;;;14.43;3.40;;;3.70;90.40;;;;;;10468788;28;20543;-68
2021/04/22 00:34:39;;;;;;;20.83;3.95;;;3.70;90.40;;;;;;10469125;28;20047;-67
2021/04/22 00:39:40;;;;;;;20.88;3.97;;;3.70;90.30;;;;;;10469695;28;20496;-67
2021/04/22 00:44:46;;;;;;;9.95;3.22;;;3.70;90.30;;;;;;10469656;28;20140;-68
2021/04/22 00:49:48;;;;;;;17.88;3.00;;;3.60;92.40;;;;;;10469533;28;20426;-67
2021/04/22 00:54:49;;;;;;;11.10;3.10;;;3.60;90.40;;;;;;10476602;28;20049;-67
2021/04/22 00:59:52;;;;;;;18.13;2.97;;;3.60;90.60;;;;;;10477205;28;20115;-67
2021/04/22 01:04:53;;;;;;;15.77;2.97;;;3.50;90.70;;;;;;10476329;28;20048;-67
2021/04/22 01:09:56;;;;;;;21.33;4.00;;;1.50;90.30;;;;;;10476324;28;20139;-67
2021/04/22 01:14:58;;;;;;;10.20;2.75;;;3.20;91.00;;;;;;10474720;28;20048;-68
2021/04/22 01:19:59;;;;;;;33.33;5.80;;;3.40;93.30;;;;;;10476494;28;20560;-67
2021/04/22 01:25:02;;;;;;;30.15;3.38;;;3.30;91.30;;;;;;10474904;28;20139;-67
2021/04/22 01:30:06;;;;;;;17.25;2.67;;;3.40;91.40;;;;;;10474943;28;20578;-67
2021/04/22 01:35:08;;;;;;;19.58;4.20;;;3.30;91.40;;;;;;10466716;28;20058;-67
2021/04/22 01:40:13;;;;;;;16.48;3.05;;;3.30;91.40;;;;;;10475889;28;20153;-68
2021/04/22 01:45:15;;;;;;;21.45;4.28;;;3.40;91.60;;;;;;10471832;28;20048;-67
2021/04/22 01:50:19;;;;;;;23.35;3.53;;;3.50;91.60;;;;;;10469736;28;20106;-68
2021/04/22 01:55:28;;;;;;;23.33;3.45;;;3.50;91.50;;;;;;10471646;28;20135;-67
2021/04/22 02:00:35;;;;;;;21.27;3.40;;;3.50;91.60;;;;;;10471225;28;20052;-67
2021/04/22 02:05:38;;;;;;;20.20;3.75;;;3.50;91.60;;;;;;10471706;28;20384;-67
2021/04/22 02:10:42;;;;;;;18.80;3.42;;;3.50;91.80;;;;;;10475794;28;20148;-68
2021/04/22 02:15:44;;;;;;;19.42;3.20;;;3.40;91.80;;;;;;10475382;28;20189;-68
2021/04/22 02:20:46;;;;;;;17.53;2.93;;;3.50;93.70;;;;;;10474402;28;20143;-68
2021/04/22 02:25:49;;;;;;;17.40;3.97;;;3.40;91.90;;;;;;10476419;28;20040;-67
2021/04/22 02:30:50;;;;;;;23.42;3.33;;;3.40;91.80;;;;;;10476080;28;20056;-68
2021/04/22 02:35:52;;;;;;;9.27;2.97;;;3.40;91.70;;;;;;10472581;28;20044;-68
2021/04/22 02:40:54;;;;;;;12.23;3.60;;;3.40;91.70;;;;;;10474827;28;20052;-68
2021/04/22 02:45:56;;;;;;;18.90;2.90;;;3.30;91.70;;;;;;10473641;28;20060;-67
2021/04/22 02:50:59;;;;;;;18.67;3.75;;;3.70;91.90;;;;;;10474040;28;20117;-68
2021/04/22 02:56:02;;;;;;;;;;;3.20;91.60;;;;;;10473778;28;20063;-67
2021/04/22 03:01:04;;;;;;;14.80;3.55;;;2.70;94.50;;;;;;10474697;28;19916;-67
2021/04/22 03:06:06;;;;;;;13.30;3.50;;;2.90;94.40;;;;;;10472112;28;20083;-68
2021/04/22 03:11:10;;;;;;;17.10;3.50;;;2.80;92.20;;;;;;10470915;28;20193;-68
2021/04/22 03:16:12;;;;;;;16.77;3.40;;;2.80;92.30;;;;;;10473080;28;20041;-68
2021/04/22 03:21:13;;;;;;;16.60;3.80;;;2.30;94.60;;;;;;10472585;28;20044;-67
2021/04/22 03:26:16;;;;;;;20.20;4.30;;;2.00;94.70;;;;;;10471615;28;20382;-67
2021/04/22 03:31:17;;;;;;;17.47;4.10;;;2.20;92.60;;;;;;10473433;28;20045;-67
2021/04/22 03:36:18;;;;;;;28.80;4.72;;;2.00;92.80;;;;;;10471743;28;20043;-67
2021/04/22 03:41:21;;;;;;;26.00;4.90;;;1.90;92.80;;;;;;10472687;28;22090;-67
2021/04/22 03:46:22;;;;;;;24.83;4.22;;;1.80;93.00;;;;;;10471564;28;20527;-67
2021/04/22 03:51:24;;;;;;;25.85;4.60;;;1.80;93.20;;;;;;10471239;28;20048;-67
2021/04/22 03:56:26;;;;;;;20.33;3.87;;;1.90;95.00;;;;;;10468890;28;20050;-68
2021/04/22 04:01:27;;;;;;;17.00;4.00;;;1.90;92.90;;;;;;10469967;28;20428;-67
2021/04/22 04:06:28;;;;;;;17.45;3.55;;;1.90;93.00;;;;;;10467974;28;20062;-67
2021/04/22 04:11:31;;;;;;;22.50;3.57;;;1.80;95.50;;;;;;10468512;28;20041;-67
2021/04/22 04:16:32;;;;;;;25.30;3.23;;;1.90;93.40;;;;;;10471758;28;20037;-68
2021/04/22 04:21:34;;;;;;;19.53;3.53;;;1.80;93.40;;;;;;10471710;28;20033;-67
2021/04/22 04:26:36;;;;;;;18.73;3.33;;;1.70;93.60;;;;;;10474494;28;20123;-67
2021/04/22 04:31:37;;;;;;;15.10;3.30;;;1.90;96.00;;;;;;10477260;28;20575;-67
2021/04/22 04:36:43;;;;;;;13.23;2.50;;;1.80;95.50;;;;;;10476851;28;20063;-67
2021/04/22 04:41:45;;;;;;;13.63;2.67;;;1.90;95.40;;;;;;10477117;28;20091;-67
2021/04/22 04:46:47;;;;;;;16.83;2.77;;;1.90;93.30;;;;;;10477130;28;20130;-66
2021/04/22 04:51:48;;;;;;;23.17;3.53;;;1.80;95.40;;;;;;10477957;28;20132;-67
2021/04/22 04:56:50;;;;;;;8.20;2.40;;;1.90;95.40;;;;;;10477205;28;20063;-67
2021/04/22 05:01:52;;;;;;;13.88;3.35;;;;;;;;;;10469917;28;20059;-68
2021/04/22 05:06:53;;;;;;;16.73;2.90;;;2.50;95.00;;;;;;10474265;28;20040;-67
2021/04/22 05:11:55;;;;;;;25.42;2.85;;;2.50;92.90;;;;;;10476525;28;20071;-67
2021/04/22 05:16:57;;;;;;;13.95;2.55;;;3.10;92.70;;;;;;10476443;28;20074;-68
2021/04/22 05:21:58;;;;;;;17.55;3.30;;;4.10;92.00;;;;;;10476125;28;20131;-67
2021/04/22 05:27:00;;;;;;;15.18;2.47;;;5.90;89.10;;;;;;10476017;28;20073;-68
2021/04/22 05:32:02;;;;;;;17.73;3.73;;;8.00;80.60;;;;;;10474368;28;20086;-67
2021/04/22 05:37:03;;;;;;;10.88;2.78;;;10.60;71.10;;;;;;10473036;28;20052;-67
2021/04/22 05:42:06;;;;;;;18.30;3.17;;;12.50;61.80;;;;;;10477158;28;20354;-68
2021/04/22 05:47:08;;;;;;;18.40;3.40;;;13.90;56.70;;;;;;10475699;28;20217;-68
2021/04/22 05:52:09;;;;;;;19.25;3.17;;;15.90;51.10;;;;;;10469807;28;20068;-68
2021/04/22 05:57:11;;;;;;;13.52;2.53;;;16.90;47.90;;;;;;10473351;28;20047;-69
2021/04/22 06:02:14;;;;;;;16.40;3.38;;;18.10;44.90;;;;;;10463278;28;20420;-69
2021/04/22 06:07:15;;;;;;;21.98;3.13;;;17.70;45.20;;;;;;10464668;28;20063;-69
2021/04/22 06:12:18;;;;;;;11.10;1.77;;;19.10;40.90;;;;;;10466132;28;20458;-69
2021/04/22 06:17:19;;;;;;;8.70;2.35;;;18.30;40.00;;;;;;10467678;28;20048;-68
2021/04/22 06:22:20;;;;;;;13.98;2.20;;;15.70;44.90;;;;;;10468989;28;20361;-68
2021/04/22 06:27:23;;;;;;;10.68;1.98;;;13.10;47.30;;;;;;10469358;28;20052;-68
2021/04/22 06:32:24;;;;;;;17.73;2.30;;;15.90;43.40;;;;;;10463297;28;20051;-69
2021/04/22 06:37:25;;;;;;;12.80;2.08;;;16.80;39.30;;;;;;10465294;28;20388;-68
2021/04/22 06:42:28;;;;;;;7.70;1.83;;;14.10;43.00;;;;;;10473911;28;20133;-69
2021/04/22 06:47:29;;;;;;;14.18;1.70;;;13.90;44.40;;;;;;10470825;28;20479;-68
2021/04/22 06:52:30;;;;;;;15.45;2.13;;;13.80;45.20;;;;;;10470828;28;20127;-68
2021/04/22 06:57:33;;;;;;;9.63;2.83;;;15.30;41.80;;;;;;10472161;28;20076;-68
2021/04/22 07:02:34;;;;;;;9.55;2.08;;;16.40;39.10;;;;;;10468953;28;20361;-68
2021/04/22 07:07:35;;;;;;;10.13;1.60;;;14.80;41.80;;;;;;10472701;28;20098;-67
2021/04/22 07:12:37;;;;;;;9.18;1.80;;;13.90;44.40;;;;;;10467275;28;20140;-66
2021/04/22 07:17:40;;;;;;;11.05;1.77;;;14.90;41.50;;;;;;10471471;28;20561;-66
2021/04/22 07:22:41;;;;;;;17.67;2.17;;;17.20;38.10;;;;;;10471846;28;20063;-68
2021/04/22 07:27:44;;;;;;;15.10;2.85;;;17.80;35.10;;;;;;10470672;28;20052;-68
2021/04/22 07:32:45;;;;;;;14.02;2.65;;;16.20;37.90;;;;;;10470232;28;20075;-66
2021/04/22 07:37:47;;;;;;;8.60;1.98;;;15.30;40.20;;;;;;10472543;28;20139;-67
2021/04/22 07:42:52;;;;;;;6.47;1.90;;;20.10;31.50;;;;;;10470292;28;20053;-66
2021/04/22 07:47:53;;;;;;;13.07;1.88;;;18.90;33.20;;;;;;10470277;28;20080;-68
2021/04/22 07:52:55;;;;;;;13.88;2.08;;;20.50;30.00;;;;;;10471035;28;20159;-70
2021/04/22 07:57:57;;;;;;;10.88;1.70;;;20.40;30.30;;;;;;10468247;28;20037;-68
2021/04/22 08:03:01;;;;;;;14.52;2.05;;;21.70;29.50;;;;;;10469419;28;20098;-67
2021/04/22 08:08:03;;;;;;;17.30;2.97;;;23.80;28.10;;;;;;10469028;28;20645;-67
2021/04/22 08:13:06;;;;;;;10.68;1.63;;;22.50;28.40;;;;;;10468901;28;20136;-67
2021/04/22 08:18:07;;;;;;;11.30;1.63;;;19.70;31.70;;;;;;10470003;28;20267;-68
2021/04/22 08:23:10;;;;;;;10.85;2.08;;;22.30;28.50;;;;;;10471171;28;20049;-68
2021/04/22 08:28:17;;;;;;;10.07;1.80;;;22.10;28.50;;;;;;10469935;28;20049;-66
2021/04/22 08:33:22;;;;;;;13.20;2.05;;;20.40;30.20;;;;;;10468641;28;20078;-68
2021/04/22 08:38:24;;;;;;;10.05;1.80;;;18.50;32.60;;;;;;10467365;28;20479;-68
2021/04/22 08:43:27;;;;;;;8.20;1.83;;;16.90;34.60;;;;;;10467748;28;20040;-71
2021/04/22 08:48:28;;;;;;;8.65;1.83;;;16.60;33.30;;;;;;10469912;28;20139;-72
2021/04/22 08:53:34;;;;;;;9.23;1.50;;;17.50;33.90;;;;;;10468461;28;20138;-71
2021/04/22 08:58:36;;;;;;;8.65;1.80;;;19.50;31.40;;;;;;10470236;28;20123;-69
2021/04/22 09:03:38;;;;;;;8.93;1.80;;;18.90;31.40;;;;;;10469262;28;20053;-69
2021/04/22 09:08:42;;;;;;;12.48;2.45;;;21.00;29.90;;;;;;10467733;28;20451;-68
2021/04/22 09:13:45;;;;;;;11.38;2.15;;;23.20;28.60;;;;;;10472714;28;20049;-67
2021/04/22 09:18:49;;;;;;;9.50;1.63;;;23.00;27.80;;;;;;10476770;28;20075;-69
2021/04/22 09:23:59;;;;;;;5.80;1.83;;;21.20;29.10;;;;;;10473962;28;20168;-66
2021/04/22 09:29:03;;;;;;;12.32;1.95;;;21.10;29.10;;;;;;10474450;28;20195;-66
2021/04/22 09:34:07;;;;;;;8.38;2.13;;;21.70;28.50;;;;;;10474563;28;20110;-68
2021/04/22 09:39:09;;;;;;;15.32;2.67;;;22.20;28.20;;;;;;10476183;28;20147;-68
2021/04/22 09:44:14;;;;;;;7.53;2.03;;;22.80;27.80;;;;;;10475931;28;20050;-68
2021/04/22 09:49:17;;;;;;;9.90;1.88;;;22.40;28.40;;;;;;10475826;28;20063;-69
2021/04/22 09:54:20;;;;;;;8.95;1.60;;;23.10;29.50;;;;;;10476788;28;20155;-67
2021/04/22 09:59:26;;;;;;;12.50;1.77;;;21.40;28.80;;;;;;10475831;28;20040;-67
2021/04/22 10:04:32;;;;;;;5.78;1.42;;;22.20;28.40;;;;;;10474251;28;20060;-66
2021/04/22 10:09:35;;;;;;;8.63;1.40;;;22.20;28.50;;;;;;10475147;28;20052;-68
2021/04/22 10:14:38;;;;;;;13.05;1.75;;;21.90;28.50;;;;;;10473764;28;20420;-67
2021/04/22 10:19:39;;;;;;;13.10;2.08;;;21.90;28.30;;;;;;10473303;28;20158;-66
2021/04/22 10:24:41;;;;;;;9.82;2.15;;;21.30;28.70;;;;;;10473539;28;20131;-66
2021/04/22 10:29:43;;;;;;;17.17;2.10;;;21.30;28.90;;;;;;10476080;28;20149;-67
2021/04/22 10:34:45;;;;;;;12.65;2.03;;;21.20;29.00;;;;;;10474110;28;20153;-67
2021/04/22 10:39:48;;;;;;;14.68;2.17;;;20.60;29.50;;;;;;10473017;28;20052;-67
2021/04/22 10:44:50;;;;;;;8.25;1.75;;;20.70;30.00;;;;;;10467919;28;20059;-67
2021/04/22 10:49:52;;;;;;;9.00;1.63;;;21.20;29.20;;;;;;10470653;28;21818;-67
2021/04/22 10:54:53;;;;;;;8.32;1.70;;;20.90;29.60;;;;;;10471185;28;20153;-67
2021/04/22 11:00:05;;;;;;;9.10;1.60;;;20.50;30.00;;;;;;10471134;28;20055;-68
2021/04/22 11:05:17;;;;;;;6.60;1.63;;;20.60;29.70;;;;;;10473391;28;20071;-66
2021/04/22 11:10:19;;;;;;;8.70;1.77;;;20.40;30.10;;;;;;10472052;28;20549;-67
2021/04/22 11:15:21;;;;;;;9.98;1.88;;;20.20;30.10;;;;;;10471535;28;20127;-66
2021/04/22 11:20:23;;;;;;;9.63;1.83;;;20.40;30.20;;;;;;10471558;28;20123;-66
2021/04/22 11:25:25;;;;;;;12.43;1.98;;;20.50;30.30;;;;;;10470622;28;20070;-66
2021/04/22 11:30:29;;;;;;;16.45;1.60;;;20.60;31.00;;;;;;10471620;28;20043;-66
2021/04/22 11:35:31;;;;;;;8.65;1.80;;;20.80;29.90;;;;;;10470318;28;20045;-66
2021/04/22 11:40:38;;;;;;;9.77;1.60;;;20.10;30.30;;;;;;10472496;28;21242;-65
2021/04/22 11:45:48;;;;;;;11.82;2.10;;;20.00;30.50;;;;;;10471492;28;21607;-67
2021/04/22 11:50:51;;;;;;;8.55;1.80;;;19.90;30.80;;;;;;10469079;28;20447;-65
2021/04/22 11:55:56;;;;;;;6.07;1.50;;;19.90;30.90;;;;;;10470542;28;20044;-66
2021/04/22 12:01:01;;;;;;;12.85;1.55;;;19.50;31.20;;;;;;10472578;28;20053;-67
2021/04/22 12:06:04;;;;;;;7.45;1.65;;;19.40;31.30;;;;;;10471356;28;20132;-68
2021/04/22 12:11:08;;;;;;;10.85;1.77;;;19.60;31.00;;;;;;10468600;28;20044;-65
2021/04/22 12:16:11;;;;;;;8.57;2.95;;;19.40;31.70;;;;;;10467604;28;20063;-71
2021/04/22 12:21:14;;;;;;;12.63;1.67;;;19.10;31.00;;;;;;10469632;28;20044;-66
2021/04/22 12:26:17;;;;;;;11.10;2.17;;;18.60;32.30;;;;;;10470462;28;20110;-67
2021/04/22 12:31:28;;;;;;;9.82;1.70;;;18.40;33.10;;;;;;10467724;28;20044;-67
2021/04/22 12:36:30;;;;;;;4.00;1.37;;;18.20;33.50;;;;;;10467656;28;20072;-67
2021/04/22 12:41:31;;;;;;;9.23;1.53;;;17.90;34.20;;;;;;10469474;28;20064;-66
2021/04/22 12:46:34;;;;;;;7.18;2.15;;;17.70;34.90;;;;;;10469843;28;20460;-67
2021/04/22 12:51:39;;;;;;;13.32;1.60;;;19.40;34.70;;;;;;10477601;28;20076;-67
2021/04/22 12:56:41;;;;;;;18.00;3.28;;;18.00;34.30;;;;;;10476757;28;20139;-67
2021/04/22 13:01:43;;;;;;;11.25;2.20;;;17.70;34.60;;;;;;10475230;28;20052;-67
2021/04/22 13:06:45;;;;;;;;;;;17.70;35.60;;;;;;10476132;28;20083;-66
2021/04/22 13:11:47;;;;;;;16.38;1.73;;;16.70;36.30;;;;;;10474282;28;19928;-71
2021/04/22 13:16:50;;;;;;;;;;;17.90;36.90;;;;;;10474238;28;20476;-70
2021/04/22 13:21:53;;;;;;;4.50;1.75;;;16.90;36.50;;;;;;10474153;28;20334;-69
2021/04/22 13:26:57;;;;;;;18.23;3.65;;;16.50;36.80;;;;;;10477534;28;20099;-69
2021/04/22 13:32:01;;;;;;;4.90;1.25;;;17.00;38.30;;;;;;10474691;28;20084;-69
2021/04/22 13:37:04;;;;;;;8.75;1.60;;;16.20;38.30;;;;;;10476353;28;20128;-69
2021/04/22 13:42:06;;;;;;;12.60;2.28;;;16.60;38.70;;;;;;10473699;28;20058;-68
2021/04/22 13:47:12;;;;;;;9.48;1.90;;;16.00;38.60;;;;;;10479836;28;20080;-69
2021/04/22 13:52:16;;;;;;;6.40;1.13;;;15.80;39.20;;;;;;10477056;28;20405;-67
2021/04/22 13:57:19;;;;;;;8.00;1.60;;;15.60;39.90;;;;;;10474286;28;20083;-66
2021/04/22 14:02:23;;;;;;;17.95;2.60;;;15.50;40.00;;;;;;10475021;28;20090;-65
2021/04/22 14:07:26;;;;;;;10.00;1.65;;;15.30;41.00;;;;;;10474847;28;20380;-67
2021/04/22 14:12:32;;;;;;;17.13;1.65;;;15.00;41.40;;;;;;10475308;28;20090;-64
2021/04/22 14:17:34;;;;;;;11.30;2.15;;;14.60;42.00;;;;;;10474542;28;20095;-66
2021/04/22 14:22:35;;;;;;;9.00;1.52;;;14.50;42.90;;;;;;10474473;28;20072;-64
2021/04/22 14:27:37;;;;;;;6.50;1.52;;;14.20;43.40;;;;;;10475941;28;20056;-65
2021/04/22 14:32:39;;;;;;;8.57;1.90;;;14.10;43.90;;;;;;10474211;28;20143;-65
2021/04/22 14:37:40;;;;;;;13.10;2.10;;;13.70;43.40;;;;;;10471871;28;20056;-66
2021/04/22 14:42:42;;;;;;;2.85;1.13;;;13.60;44.10;;;;;;10470144;28;20083;-65
2021/04/22 14:47:44;;;;;;;7.95;1.42;;;13.40;45.00;;;;;;10473365;28;20147;-66
2021/04/22 14:52:46;;;;;;;8.02;1.60;;;13.30;45.50;;;;;;10471767;28;20143;-66
2021/04/22 14:57:47;;;;;;;11.27;1.70;;;13.40;46.00;;;;;;10472946;28;20790;-71
2021/04/22 15:02:49;;;;;;;7.75;1.55;;;13.30;46.70;;;;;;10472803;28;20143;-66
2021/04/22 15:07:51;;;;;;;5.22;1.40;;;13.10;46.90;;;;;;10472378;28;21852;-68
2021/04/22 15:12:52;;;;;;;3.15;1.50;;;13.00;47.30;;;;;;10471421;28;20044;-69
2021/04/22 15:17:54;;;;;;;7.57;1.67;;;12.90;47.20;;;;;;10471981;28;20060;-68
2021/04/22 15:22:57;;;;;;;7.40;1.45;;;12.60;47.30;;;;;;10473317;28;20178;-68
2021/04/22 15:27:58;;;;;;;;;;;12.40;48.20;;;;;;10471274;28;20426;-68
2021/04/22 15:33:02;;;;;;;4.95;1.20;;;12.30;49.10;;;;;;10471695;28;21534;-68
2021/04/22 15:38:06;;;;;;;4.97;1.00;;;12.30;50.00;;;;;;10470806;28;20040;-70
2021/04/22 15:43:09;;;;;;;8.68;1.50;;;12.10;49.80;;;;;;10470727;28;20511;-67
2021/04/22 15:48:12;;;;;;;10.50;1.88;;;12.00;50.90;;;;;;10471289;28;20050;-68
2021/04/22 15:53:13;;;;;;;16.05;1.65;;;11.80;52.00;;;;;;10470335;28;20594;-71
2021/04/22 15:58:15;;;;;;;11.48;2.25;;;11.60;53.90;;;;;;10473895;28;20048;-68
2021/04/22 16:03:18;;;;;;;14.40;2.45;;;11.50;56.00;;;;;;10465632;28;20630;-70
2021/04/22 16:08:20;;;;;;;8.27;1.52;;;11.30;56.90;;;;;;10464972;28;20495;-71
2021/04/22 16:13:21;;;;;;;12.32;2.63;;;11.00;57.20;;;;;;10467031;28;20040;-69
2021/04/22 16:18:24;;;;;;;10.10;2.03;;;10.90;58.20;;;;;;10469132;28;20120;-69
2021/04/22 16:23:27;;;;;;;7.40;1.53;;;10.90;58.40;;;;;;10467939;28;20091;-68
2021/04/22 16:28:28;;;;;;;8.75;1.65;;;10.70;59.60;;;;;;10477624;28;20060;-70
2021/04/22 16:33:31;;;;;;;9.07;1.55;;;10.60;61.70;;;;;;10474950;28;20048;-67
2021/04/22 16:38:33;;;;;;;15.90;1.92;;;10.50;61.20;;;;;;10474438;28;20063;-70
2021/04/22 16:43:34;;;;;;;6.22;1.38;;;10.40;62.60;;;;;;10475668;28;20051;-68
2021/04/22 16:48:37;;;;;;;15.57;2.03;;;10.20;62.90;;;;;;10474009;28;20132;-68
2021/04/22 16:53:38;;;;;;;9.93;2.17;;;10.10;63.80;;;;;;10476959;28;20098;-69
2021/04/22 16:58:39;;;;;;;3.95;1.30;;;9.80;65.20;;;;;;10476565;28;20052;-68
2021/04/22 17:03:41;;;;;;;8.65;2.33;;;9.70;66.00;;;;;;10474624;28;20060;-69
2021/04/22 17:08:43;;;;;;;9.23;1.63;;;9.60;67.40;;;;;;10472119;28;20396;-69
2021/04/22 17:13:44;;;;;;;11.77;2.13;;;9.50;67.00;;;;;;10473509;28;20084;-68
2021/04/22 17:18:46;;;;;;;11.18;1.73;;;9.40;68.10;;;;;;10472119;28;20511;-67
2021/04/22 17:23:48;;;;;;;10.05;1.60;;;9.20;69.70;;;;;;10474593;28;20056;-68
2021/04/22 17:28:50;;;;;;;13.52;1.80;;;9.10;70.80;;;;;;10474219;28;20040;-68
2021/04/22 17:33:52;;;;;;;7.07;1.90;;;8.80;72.50;;;;;;10471983;28;20496;-68
2021/04/22 17:38:56;;;;;;;6.50;1.63;;;8.60;73.40;;;;;;10474626;28;20147;-68
2021/04/22 17:43:57;;;;;;;11.60;2.10;;;8.50;74.70;;;;;;10473613;28;20094;-67
2021/04/22 17:49:00;;;;;;;12.57;1.70;;;8.30;76.20;;;;;;10475036;28;20064;-68
2021/04/22 17:54:01;;;;;;;12.20;2.20;;;8.20;77.30;;;;;;10474533;28;20060;-68
2021/04/22 17:59:04;;;;;;;13.10;2.25;;;8.10;78.80;;;;;;10474222;28;20036;-70
2021/04/22 18:04:06;;;;;;;9.50;1.40;;;8.00;80.20;;;;;;10477083;28;20468;-68
2021/04/22 18:09:07;;;;;;;8.57;2.13;;;7.60;83.30;;;;;;10474127;28;20067;-69
2021/04/22 18:14:09;;;;;;;7.45;1.65;;;7.70;80.00;;;;;;10472775;28;20058;-68
2021/04/22 18:19:11;;;;;;;9.38;1.70;;;7.50;85.30;;;;;;10472423;28;20147;-68
2021/04/22 18:24:17;;;;;;;11.70;2.60;;;7.50;81.20;;;;;;10473549;28;20045;-69
2021/04/22 18:29:18;;;;;;;9.82;2.15;;;7.30;82.30;;;;;;10472617;28;20048;-69
2021/04/22 18:34:20;;;;;;;13.02;2.00;;;9.30;83.80;;;;;;10471926;28;20131;-69
2021/04/22 18:39:21;;;;;;;7.88;2.20;;;7.10;83.30;;;;;;10472015;28;20052;-69
2021/04/22 18:44:23;;;;;;;8.02;2.65;;;7.00;84.60;;;;;;10471233;28;20473;-68
2021/04/22 18:49:27;;;;;;;7.88;2.17;;;6.80;84.70;;;;;;10467013;28;20313;-67
2021/04/22 18:54:28;;;;;;;9.07;2.13;;;6.70;85.70;;;;;;10472328;28;20087;-69
2021/04/22 18:59:33;;;;;;;22.13;2.80;;;6.60;86.70;;;;;;10470937;28;20076;-67
2021/04/22 19:04:35;;;;;;;14.85;2.72;;;6.40;87.40;;;;;;10472469;28;20217;-69
2021/04/22 19:09:37;;;;;;;17.90;2.70;;;6.30;88.30;;;;;;10468147;28;20052;-67
2021/04/22 19:14:38;;;;;;;12.05;2.85;;;6.30;88.40;;;;;;10467181;28;20048;-68
2021/04/22 19:19:40;;;;;;;11.02;2.53;;;6.10;92.20;;;;;;10470818;28;20581;-69
2021/04/22 19:24:42;;;;;;;11.48;2.35;;;6.00;89.90;;;;;;10470369;28;20048;-68
2021/04/22 19:29:43;;;;;;;10.00;2.60;;;6.00;90.10;;;;;;10470341;28;20171;-68
2021/04/22 19:34:46;;;;;;;12.38;2.95;;;5.90;90.30;;;;;;10469396;28;20083;-68
2021/04/22 19:39:47;;;;;;;18.07;2.57;;;5.90;92.50;;;;;;10470328;28;20650;-68
2021/04/22 19:44:48;;;;;;;20.15;2.70;;;5.50;92.80;;;;;;10470521;28;20071;-68
2021/04/22 19:49:52;;;;;;;10.43;3.17;;;5.60;91.00;;;;;;10469393;28;20060;-69
2021/04/22 19:54:53;;;;;;;;;;;5.50;91.00;;;;;;10469797;28;20044;-68
2021/04/22 19:59:55;;;;;;;9.15;2.20;;;5.60;93.60;;;;;;10468727;28;19925;-69
2021/04/22 20:04:57;;;;;;;18.38;3.28;;;5.50;91.70;;;;;;10470396;28;20376;-69
2021/04/22 20:09:59;;;;;;;10.33;2.30;;;5.50;91.90;;;;;;10471171;28;20057;-70
2021/04/22 20:15:00;;;;;;;11.00;3.03;;;5.40;92.30;;;;;;10480887;28;20048;-69
2021/04/22 20:20:04;;;;;;;14.32;3.42;;;5.40;92.10;;;;;;10472167;28;20041;-68
2021/04/22 20:25:07;;;;;;;17.63;2.88;;;5.20;92.30;;;;;;10473845;28;20049;-69
2021/04/22 20:30:12;;;;;;;21.98;3.05;;;5.20;92.50;;;;;;10471810;28;20049;-69
2021/04/22 20:35:16;;;;;;;7.50;2.65;;;5.00;92.50;;;;;;10469723;28;20541;-69
2021/04/22 20:40:19;;;;;;;9.93;2.47;;;4.90;92.50;;;;;;10470330;28;20126;-69
2021/04/22 20:45:20;;;;;;;6.75;2.00;;;4.80;92.60;;;;;;10472252;28;20086;-68
2021/04/22 20:50:23;;;;;;;15.23;2.55;;;4.80;93.20;;;;;;10473163;28;20088;-68
2021/04/22 20:55:25;;;;;;;9.82;2.95;;;4.70;92.70;;;;;;10476809;28;20044;-67
2021/04/22 21:00:30;;;;;;;14.80;3.35;;;4.60;95.20;;;;;;10486335;28;20044;-67
2021/04/22 21:05:32;;;;;;;14.80;3.03;;;4.50;93.30;;;;;;10475957;28;20520;-67
2021/04/22 21:10:35;;;;;;;13.93;3.17;;;4.40;94.00;;;;;;10479499;28;20466;-68
2021/04/22 21:15:37;;;;;;;8.80;2.35;;;4.30;93.50;;;;;;10486538;28;20078;-68
2021/04/22 21:20:40;;;;;;;12.37;3.10;;;4.00;96.30;;;;;;10488379;28;21365;-68
2021/04/22 21:25:41;;;;;;;14.32;3.17;;;3.90;96.70;;;;;;10478689;28;20123;-68
2021/04/22 21:30:42;;;;;;;16.67;2.95;;;4.40;96.60;;;;;;10476811;28;20071;-69
2021/04/22 21:35:45;;;;;;;23.95;3.85;;;4.40;94.70;;;;;;10476529;28;20037;-67
2021/04/22 21:40:46;;;;;;;8.07;3.83;;;4.30;94.60;;;;;;10477077;28;20079;-68
2021/04/22 21:45:47;;;;;;;16.05;3.63;;;4.20;96.30;;;;;;10455883;28;20617;-68
2021/04/22 21:50:49;;;;;;;14.45;4.32;;;4.10;94.50;;;;;;10474307;28;20076;-71
2021/04/22 21:55:51;;;;;;;7.70;3.10;;;4.00;94.60;;;;;;10475262;28;20555;-68
2021/04/22 22:00:52;;;;;;;12.07;3.25;;;3.90;94.90;;;;;;10476311;28;20041;-68
2021/04/22 22:05:54;;;;;;;19.35;3.95;;;3.70;95.70;;;;;;10473843;28;20102;-68
2021/04/22 22:10:56;;;;;;;9.15;3.13;;;3.50;96.90;;;;;;10473676;28;20643;-69
2021/04/22 22:15:58;;;;;;;12.07;3.08;;;3.60;95.10;;;;;;10473064;28;20049;-69
2021/04/22 22:21:01;;;;;;;17.80;3.42;;;3.70;95.30;;;;;;10472988;28;20123;-68
2021/04/22 22:26:02;;;;;;;11.17;3.40;;;3.60;94.90;;;;;;10474072;28;20186;-68
2021/04/22 22:31:04;;;;;;;20.05;3.75;;;5.10;95.50;;;;;;10473365;28;20072;-68
2021/04/22 22:36:08;;;;;;;10.98;3.15;;;3.60;97.40;;;;;;10472909;28;20051;-69
2021/04/22 22:41:12;;;;;;;12.50;3.47;;;3.30;95.30;;;;;;10472545;28;20080;-69
2021/04/22 22:46:14;;;;;;;11.88;2.70;;;3.30;95.50;;;;;;10471430;28;20381;-68
2021/04/22 22:51:17;;;;;;;7.37;3.47;;;3.30;95.50;;;;;;10472475;28;20465;-68
2021/04/22 22:56:18;;;;;;;15.38;4.30;;;3.30;95.50;;;;;;10472861;28;20041;-68
2021/04/22 23:01:20;;;;;;;23.80;4.00;;;3.20;95.70;;;;;;10469473;28;20044;-68
2021/04/22 23:06:22;;;;;;;16.00;3.63;;;3.20;95.50;;;;;;10469557;28;20043;-67
2021/04/22 23:11:23;;;;;;;10.77;3.70;;;3.00;95.20;;;;;;10469039;28;20630;-68
2021/04/22 23:16:25;;;;;;;20.85;4.75;;;2.60;95.20;;;;;;10470263;28;20392;-68
2021/04/22 23:21:27;;;;;;;12.68;4.45;;;2.40;95.20;;;;;;10472254;28;20453;-68
2021/04/22 23:26:29;;;;;;;16.98;4.75;;;2.10;95.30;;;;;;10473829;28;20036;-68
2021/04/22 23:31:30;;;;;;;18.20;4.60;;;2.10;95.90;;;;;;10473537;28;20052;-69
2021/04/22 23:36:32;;;;;;;13.27;3.58;;;2.00;95.90;;;;;;10471572;28;20511;-68
2021/04/22 23:41:34;;;;;;;12.02;4.28;;;2.00;96.10;;;;;;10471348;28;20080;-68
2021/04/22 23:46:35;;;;;;;24.05;4.53;;;2.10;96.10;;;;;;10471957;28;20089;-67
2021/04/22 23:51:38;;;;;;;12.15;3.67;;;2.30;96.10;;;;;;10470730;28;20064;-67
2021/04/22 23:56:39;;;;;;;12.52;3.70;;;2.50;96.60;;;;;;10465982;28;20182;-67
